sensor_id;sensor_type;location;lat;lon;timestamp;P1;durP1;ratioP1;P2;durP2;ratioP2
58992;SDS011;44782;0.000;0.000;2023-05-24T00:00:52;2.50;;;1.90;;
58992;SDS011;44782;0.000;0.000;2023-05-24T00:03:09;3.00;;;2.00;;
58992;SDS011;44782;0.000;0.000;2023-05-24T00:05:25;2.33;;;1.73;;
58992;SDS011;44782;0.000;0.000;2023-05-24T00:07:45;1.80;;;1.70;;
58992;SDS011;44782;0.000;0.000;2023-05-24T00:10:00;2.50;;;1.90;;
58992;SDS011;44782;0.000;0.000;2023-05-24T00:12:17;3.57;;;2.00;;
58992;SDS011;44782;0.000;0.000;2023-05-24T00:14:32;3.10;;;2.07;;
58992;SDS011;44782;0.000;0.000;2023-05-24T00:16:48;3.17;;;1.80;;
58992;SDS011;44782;0.000;0.000;2023-05-24T00:19:04;2.40;;;1.80;;
58992;SDS011;44782;0.000;0.000;2023-05-24T00:21:20;2.47;;;1.93;;
58992;SDS011;44782;0.000;0.000;2023-05-24T00:23:35;2.07;;;1.70;;
58992;SDS011;44782;0.000;0.000;2023-05-24T00:25:52;2.97;;;2.00;;
58992;SDS011;44782;0.000;0.000;2023-05-24T00:28:08;2.37;;;1.70;;
58992;SDS011;44782;0.000;0.000;2023-05-24T00:30:24;2.57;;;1.67;;
58992;SDS011;44782;0.000;0.000;2023-05-24T00:32:40;2.43;;;1.67;;
58992;SDS011;44782;0.000;0.000;2023-05-24T00:34:56;2.47;;;1.70;;
58992;SDS011;44782;0.000;0.000;2023-05-24T00:37:12;1.93;;;1.60;;
58992;SDS011;44782;0.000;0.000;2023-05-24T00:39:27;1.80;;;1.57;;
58992;SDS011;44782;0.000;0.000;2023-05-24T00:41:43;2.07;;;1.73;;
58992;SDS011;44782;0.000;0.000;2023-05-24T00:43:58;5.70;;;1.90;;
58992;SDS011;44782;0.000;0.000;2023-05-24T00:46:18;2.50;;;1.90;;
58992;SDS011;44782;0.000;0.000;2023-05-24T00:48:36;2.70;;;1.87;;
58992;SDS011;44782;0.000;0.000;2023-05-24T00:50:52;2.70;;;1.70;;
58992;SDS011;44782;0.000;0.000;2023-05-24T00:53:07;2.30;;;1.83;;
58992;SDS011;44782;0.000;0.000;2023-05-24T00:55:24;2.27;;;1.80;;
58992;SDS011;44782;0.000;0.000;2023-05-24T00:57:39;3.50;;;1.80;;
58992;SDS011;44782;0.000;0.000;2023-05-24T00:59:55;2.47;;;1.80;;
58992;SDS011;44782;0.000;0.000;2023-05-24T01:02:11;2.27;;;1.90;;
58992;SDS011;44782;0.000;0.000;2023-05-24T01:04:27;3.53;;;1.90;;
58992;SDS011;44782;0.000;0.000;2023-05-24T01:06:59;2.57;;;1.90;;
58992;SDS011;44782;0.000;0.000;2023-05-24T01:09:33;2.53;;;1.70;;
58992;SDS011;44782;0.000;0.000;2023-05-24T01:29:35;3.17;;;2.00;;
58992;SDS011;44782;0.000;0.000;2023-05-24T01:31:52;3.10;;;2.10;;
58992;SDS011;44782;0.000;0.000;2023-05-24T01:34:08;2.53;;;2.00;;
58992;SDS011;44782;0.000;0.000;2023-05-24T01:36:23;3.20;;;1.87;;
58992;SDS011;44782;0.000;0.000;2023-05-24T01:38:39;2.80;;;2.10;;
58992;SDS011;44782;0.000;0.000;2023-05-24T01:40:58;2.37;;;1.83;;
58992;SDS011;44782;0.000;0.000;2023-05-24T01:43:39;2.77;;;1.90;;
58992;SDS011;44782;0.000;0.000;2023-05-24T01:51:00;2.10;;;1.60;;
58992;SDS011;44782;0.000;0.000;2023-05-24T01:53:26;2.33;;;1.90;;
58992;SDS011;44782;0.000;0.000;2023-05-24T01:55:47;2.90;;;2.03;;
58992;SDS011;44782;0.000;0.000;2023-05-24T01:58:05;2.47;;;2.00;;
58992;SDS011;44782;0.000;0.000;2023-05-24T02:00:22;2.03;;;1.57;;
58992;SDS011;44782;0.000;0.000;2023-05-24T02:02:39;2.17;;;1.90;;
58992;SDS011;44782;0.000;0.000;2023-05-24T02:04:54;2.20;;;1.90;;
58992;SDS011;44782;0.000;0.000;2023-05-24T02:09:36;3.77;;;2.10;;
58992;SDS011;44782;0.000;0.000;2023-05-24T02:11:52;3.23;;;2.00;;
58992;SDS011;44782;0.000;0.000;2023-05-24T02:14:07;2.83;;;1.80;;
58992;SDS011;44782;0.000;0.000;2023-05-24T02:16:23;2.17;;;1.80;;
58992;SDS011;44782;0.000;0.000;2023-05-24T02:18:40;3.23;;;2.27;;
58992;SDS011;44782;0.000;0.000;2023-05-24T02:20:58;1.97;;;1.77;;
58992;SDS011;44782;0.000;0.000;2023-05-24T02:23:15;2.87;;;1.90;;
58992;SDS011;44782;0.000;0.000;2023-05-24T02:25:31;3.03;;;1.90;;
58992;SDS011;44782;0.000;0.000;2023-05-24T02:27:47;3.17;;;1.70;;
58992;SDS011;44782;0.000;0.000;2023-05-24T02:30:03;2.27;;;1.77;;
58992;SDS011;44782;0.000;0.000;2023-05-24T02:32:20;2.33;;;1.70;;
58992;SDS011;44782;0.000;0.000;2023-05-24T02:34:36;2.53;;;1.83;;
58992;SDS011;44782;0.000;0.000;2023-05-24T02:36:52;2.60;;;1.90;;
58992;SDS011;44782;0.000;0.000;2023-05-24T02:39:08;2.20;;;1.70;;
58992;SDS011;44782;0.000;0.000;2023-05-24T02:41:24;2.80;;;1.80;;
58992;SDS011;44782;0.000;0.000;2023-05-24T02:43:40;2.67;;;2.00;;
58992;SDS011;44782;0.000;0.000;2023-05-24T02:45:57;2.33;;;1.90;;
58992;SDS011;44782;0.000;0.000;2023-05-24T02:48:12;2.17;;;1.77;;
58992;SDS011;44782;0.000;0.000;2023-05-24T02:50:28;1.90;;;1.70;;
58992;SDS011;44782;0.000;0.000;2023-05-24T02:52:44;2.33;;;1.80;;
58992;SDS011;44782;0.000;0.000;2023-05-24T02:54:59;2.40;;;1.87;;
58992;SDS011;44782;0.000;0.000;2023-05-24T02:57:15;3.40;;;2.00;;
58992;SDS011;44782;0.000;0.000;2023-05-24T02:59:32;2.40;;;1.80;;
58992;SDS011;44782;0.000;0.000;2023-05-24T03:01:47;2.60;;;1.90;;
58992;SDS011;44782;0.000;0.000;2023-05-24T03:04:03;2.20;;;1.70;;
58992;SDS011;44782;0.000;0.000;2023-05-24T03:06:19;2.13;;;1.60;;
58992;SDS011;44782;0.000;0.000;2023-05-24T03:08:34;2.63;;;1.93;;
58992;SDS011;44782;0.000;0.000;2023-05-24T03:10:51;2.57;;;1.87;;
58992;SDS011;44782;0.000;0.000;2023-05-24T03:13:06;1.97;;;1.77;;
58992;SDS011;44782;0.000;0.000;2023-05-24T03:15:22;3.10;;;1.80;;
58992;SDS011;44782;0.000;0.000;2023-05-24T03:17:38;2.23;;;1.67;;
58992;SDS011;44782;0.000;0.000;2023-05-24T03:19:54;2.27;;;1.70;;
58992;SDS011;44782;0.000;0.000;2023-05-24T03:22:09;2.20;;;1.70;;
58992;SDS011;44782;0.000;0.000;2023-05-24T03:24:25;2.00;;;1.60;;
58992;SDS011;44782;0.000;0.000;2023-05-24T03:26:41;2.10;;;1.80;;
58992;SDS011;44782;0.000;0.000;2023-05-24T03:28:57;1.70;;;1.47;;
58992;SDS011;44782;0.000;0.000;2023-05-24T03:31:12;1.93;;;1.60;;
58992;SDS011;44782;0.000;0.000;2023-05-24T03:33:30;2.17;;;1.60;;
58992;SDS011;44782;0.000;0.000;2023-05-24T03:35:46;2.27;;;1.70;;
58992;SDS011;44782;0.000;0.000;2023-05-24T03:38:02;2.30;;;1.70;;
58992;SDS011;44782;0.000;0.000;2023-05-24T03:40:17;1.67;;;1.50;;
58992;SDS011;44782;0.000;0.000;2023-05-24T03:42:33;2.37;;;1.70;;
58992;SDS011;44782;0.000;0.000;2023-05-24T03:44:49;2.40;;;1.73;;
58992;SDS011;44782;0.000;0.000;2023-05-24T03:47:04;1.80;;;1.70;;
58992;SDS011;44782;0.000;0.000;2023-05-24T03:49:20;2.17;;;1.60;;
58992;SDS011;44782;0.000;0.000;2023-05-24T03:51:35;2.43;;;1.67;;
58992;SDS011;44782;0.000;0.000;2023-05-24T03:53:51;2.03;;;1.70;;
58992;SDS011;44782;0.000;0.000;2023-05-24T03:56:07;2.43;;;1.80;;
58992;SDS011;44782;0.000;0.000;2023-05-24T03:58:22;3.00;;;1.80;;
58992;SDS011;44782;0.000;0.000;2023-05-24T04:00:38;2.37;;;1.60;;
58992;SDS011;44782;0.000;0.000;2023-05-24T04:02:54;2.70;;;1.80;;
58992;SDS011;44782;0.000;0.000;2023-05-24T04:05:12;2.53;;;1.90;;
58992;SDS011;44782;0.000;0.000;2023-05-24T04:07:28;2.13;;;1.70;;
58992;SDS011;44782;0.000;0.000;2023-05-24T04:09:43;2.60;;;1.90;;
58992;SDS011;44782;0.000;0.000;2023-05-24T04:11:59;2.60;;;1.77;;
58992;SDS011;44782;0.000;0.000;2023-05-24T04:14:18;1.83;;;1.43;;
58992;SDS011;44782;0.000;0.000;2023-05-24T04:16:34;2.00;;;1.60;;
58992;SDS011;44782;0.000;0.000;2023-05-24T04:18:49;2.70;;;1.80;;
58992;SDS011;44782;0.000;0.000;2023-05-24T04:21:05;3.10;;;1.90;;
58992;SDS011;44782;0.000;0.000;2023-05-24T04:23:21;2.47;;;1.90;;
58992;SDS011;44782;0.000;0.000;2023-05-24T04:25:36;2.63;;;1.93;;
58992;SDS011;44782;0.000;0.000;2023-05-24T04:27:52;2.00;;;1.67;;
58992;SDS011;44782;0.000;0.000;2023-05-24T04:30:08;2.20;;;1.70;;
58992;SDS011;44782;0.000;0.000;2023-05-24T04:32:24;1.60;;;1.50;;
58992;SDS011;44782;0.000;0.000;2023-05-24T04:34:40;2.00;;;1.60;;
58992;SDS011;44782;0.000;0.000;2023-05-24T04:37:01;1.97;;;1.57;;
58992;SDS011;44782;0.000;0.000;2023-05-24T04:39:17;2.20;;;1.77;;
58992;SDS011;44782;0.000;0.000;2023-05-24T04:41:33;2.63;;;1.67;;
58992;SDS011;44782;0.000;0.000;2023-05-24T04:43:51;2.03;;;1.80;;
58992;SDS011;44782;0.000;0.000;2023-05-24T04:46:07;1.80;;;1.60;;
58992;SDS011;44782;0.000;0.000;2023-05-24T04:48:23;2.10;;;1.73;;
58992;SDS011;44782;0.000;0.000;2023-05-24T04:50:38;2.27;;;1.80;;
58992;SDS011;44782;0.000;0.000;2023-05-24T04:52:54;2.13;;;1.70;;
58992;SDS011;44782;0.000;0.000;2023-05-24T04:55:10;2.93;;;1.90;;
58992;SDS011;44782;0.000;0.000;2023-05-24T04:57:25;2.53;;;1.90;;
58992;SDS011;44782;0.000;0.000;2023-05-24T04:59:41;2.47;;;1.80;;
58992;SDS011;44782;0.000;0.000;2023-05-24T05:01:57;2.57;;;1.80;;
58992;SDS011;44782;0.000;0.000;2023-05-24T05:04:13;2.87;;;1.90;;
58992;SDS011;44782;0.000;0.000;2023-05-24T05:06:28;2.83;;;1.70;;
58992;SDS011;44782;0.000;0.000;2023-05-24T05:08:45;2.13;;;1.67;;
58992;SDS011;44782;0.000;0.000;2023-05-24T05:11:01;2.17;;;1.73;;
58992;SDS011;44782;0.000;0.000;2023-05-24T05:13:17;3.07;;;1.73;;
58992;SDS011;44782;0.000;0.000;2023-05-24T05:15:33;2.80;;;1.60;;
58992;SDS011;44782;0.000;0.000;2023-05-24T05:17:48;3.20;;;1.93;;
58992;SDS011;44782;0.000;0.000;2023-05-24T05:20:04;2.23;;;1.60;;
58992;SDS011;44782;0.000;0.000;2023-05-24T05:22:21;2.93;;;1.80;;
58992;SDS011;44782;0.000;0.000;2023-05-24T05:24:36;2.07;;;1.50;;
58992;SDS011;44782;0.000;0.000;2023-05-24T05:26:52;1.73;;;1.60;;
58992;SDS011;44782;0.000;0.000;2023-05-24T05:29:08;1.80;;;1.70;;
58992;SDS011;44782;0.000;0.000;2023-05-24T05:31:23;2.10;;;1.60;;
58992;SDS011;44782;0.000;0.000;2023-05-24T05:33:39;1.83;;;1.60;;
58992;SDS011;44782;0.000;0.000;2023-05-24T05:35:55;2.50;;;1.80;;
58992;SDS011;44782;0.000;0.000;2023-05-24T05:38:11;2.33;;;1.70;;
58992;SDS011;44782;0.000;0.000;2023-05-24T05:40:26;2.87;;;1.70;;
58992;SDS011;44782;0.000;0.000;2023-05-24T05:42:42;2.03;;;1.60;;
58992;SDS011;44782;0.000;0.000;2023-05-24T05:44:57;2.37;;;1.70;;
58992;SDS011;44782;0.000;0.000;2023-05-24T05:47:13;2.23;;;1.60;;
58992;SDS011;44782;0.000;0.000;2023-05-24T05:49:31;1.90;;;1.60;;
58992;SDS011;44782;0.000;0.000;2023-05-24T05:51:50;2.07;;;1.60;;
58992;SDS011;44782;0.000;0.000;2023-05-24T05:54:07;2.53;;;1.87;;
58992;SDS011;44782;0.000;0.000;2023-05-24T05:56:29;2.40;;;1.73;;
58992;SDS011;44782;0.000;0.000;2023-05-24T05:58:45;2.03;;;1.60;;
58992;SDS011;44782;0.000;0.000;2023-05-24T06:01:00;1.70;;;1.60;;
58992;SDS011;44782;0.000;0.000;2023-05-24T06:03:16;2.07;;;1.70;;
58992;SDS011;44782;0.000;0.000;2023-05-24T06:05:32;2.13;;;1.50;;
58992;SDS011;44782;0.000;0.000;2023-05-24T06:07:47;2.23;;;1.70;;
58992;SDS011;44782;0.000;0.000;2023-05-24T06:10:03;1.60;;;1.43;;
58992;SDS011;44782;0.000;0.000;2023-05-24T06:12:20;3.03;;;1.73;;
58992;SDS011;44782;0.000;0.000;2023-05-24T06:14:35;2.70;;;1.77;;
58992;SDS011;44782;0.000;0.000;2023-05-24T06:16:52;2.97;;;1.80;;
58992;SDS011;44782;0.000;0.000;2023-05-24T06:19:09;2.40;;;1.63;;
58992;SDS011;44782;0.000;0.000;2023-05-24T06:21:24;2.17;;;1.73;;
58992;SDS011;44782;0.000;0.000;2023-05-24T06:23:40;2.40;;;1.70;;
58992;SDS011;44782;0.000;0.000;2023-05-24T06:25:56;2.40;;;1.70;;
58992;SDS011;44782;0.000;0.000;2023-05-24T06:28:12;2.33;;;1.70;;
58992;SDS011;44782;0.000;0.000;2023-05-24T06:30:28;2.20;;;1.57;;
58992;SDS011;44782;0.000;0.000;2023-05-24T06:32:44;1.90;;;1.60;;
58992;SDS011;44782;0.000;0.000;2023-05-24T06:34:59;1.90;;;1.70;;
58992;SDS011;44782;0.000;0.000;2023-05-24T06:37:15;1.87;;;1.47;;
58992;SDS011;44782;0.000;0.000;2023-05-24T06:39:31;2.30;;;1.70;;
58992;SDS011;44782;0.000;0.000;2023-05-24T06:41:46;2.50;;;1.83;;
58992;SDS011;44782;0.000;0.000;2023-05-24T06:44:05;1.90;;;1.70;;
58992;SDS011;44782;0.000;0.000;2023-05-24T06:46:21;2.10;;;1.60;;
58992;SDS011;44782;0.000;0.000;2023-05-24T06:48:39;2.37;;;1.80;;
58992;SDS011;44782;0.000;0.000;2023-05-24T06:50:55;2.37;;;1.73;;
58992;SDS011;44782;0.000;0.000;2023-05-24T06:53:11;2.50;;;1.80;;
58992;SDS011;44782;0.000;0.000;2023-05-24T06:55:26;3.40;;;2.10;;
58992;SDS011;44782;0.000;0.000;2023-05-24T06:57:42;2.17;;;1.40;;
58992;SDS011;44782;0.000;0.000;2023-05-24T06:59:58;2.33;;;1.60;;
58992;SDS011;44782;0.000;0.000;2023-05-24T07:02:13;2.00;;;1.60;;
58992;SDS011;44782;0.000;0.000;2023-05-24T07:04:29;3.07;;;1.90;;
58992;SDS011;44782;0.000;0.000;2023-05-24T07:06:47;2.67;;;1.50;;
58992;SDS011;44782;0.000;0.000;2023-05-24T07:09:03;3.07;;;1.70;;
58992;SDS011;44782;0.000;0.000;2023-05-24T07:11:19;2.00;;;1.67;;
58992;SDS011;44782;0.000;0.000;2023-05-24T07:13:35;2.40;;;1.80;;
58992;SDS011;44782;0.000;0.000;2023-05-24T07:15:50;2.60;;;1.73;;
58992;SDS011;44782;0.000;0.000;2023-05-24T07:18:06;3.13;;;1.87;;
58992;SDS011;44782;0.000;0.000;2023-05-24T07:20:22;2.40;;;1.60;;
58992;SDS011;44782;0.000;0.000;2023-05-24T07:22:37;2.57;;;1.50;;
58992;SDS011;44782;0.000;0.000;2023-05-24T07:24:55;2.47;;;1.80;;
58992;SDS011;44782;0.000;0.000;2023-05-24T07:27:10;3.37;;;2.00;;
58992;SDS011;44782;0.000;0.000;2023-05-24T07:29:26;2.10;;;1.80;;
58992;SDS011;44782;0.000;0.000;2023-05-24T07:31:42;2.30;;;1.60;;
58992;SDS011;44782;0.000;0.000;2023-05-24T07:33:57;2.83;;;1.60;;
58992;SDS011;44782;0.000;0.000;2023-05-24T07:36:13;2.37;;;1.70;;
58992;SDS011;44782;0.000;0.000;2023-05-24T07:38:29;3.57;;;1.90;;
58992;SDS011;44782;0.000;0.000;2023-05-24T07:40:45;2.20;;;1.60;;
58992;SDS011;44782;0.000;0.000;2023-05-24T07:43:01;2.17;;;1.57;;
58992;SDS011;44782;0.000;0.000;2023-05-24T07:45:16;2.00;;;1.70;;
58992;SDS011;44782;0.000;0.000;2023-05-24T07:47:32;1.90;;;1.50;;
58992;SDS011;44782;0.000;0.000;2023-05-24T07:49:48;1.90;;;1.53;;
58992;SDS011;44782;0.000;0.000;2023-05-24T07:52:03;2.63;;;1.70;;
58992;SDS011;44782;0.000;0.000;2023-05-24T07:54:20;2.03;;;1.80;;
58992;SDS011;44782;0.000;0.000;2023-05-24T07:56:35;1.90;;;1.60;;
58992;SDS011;44782;0.000;0.000;2023-05-24T07:58:51;4.00;;;1.77;;
58992;SDS011;44782;0.000;0.000;2023-05-24T08:01:11;2.47;;;1.73;;
58992;SDS011;44782;0.000;0.000;2023-05-24T08:03:27;2.50;;;1.67;;
58992;SDS011;44782;0.000;0.000;2023-05-24T08:05:43;2.97;;;1.50;;
58992;SDS011;44782;0.000;0.000;2023-05-24T08:07:59;3.27;;;1.87;;
58992;SDS011;44782;0.000;0.000;2023-05-24T08:10:15;2.47;;;1.80;;
58992;SDS011;44782;0.000;0.000;2023-05-24T08:12:30;1.90;;;1.37;;
58992;SDS011;44782;0.000;0.000;2023-05-24T08:14:46;2.30;;;1.50;;
58992;SDS011;44782;0.000;0.000;2023-05-24T08:17:02;2.50;;;1.60;;
58992;SDS011;44782;0.000;0.000;2023-05-24T08:19:18;2.63;;;1.80;;
58992;SDS011;44782;0.000;0.000;2023-05-24T08:21:34;2.37;;;1.70;;
58992;SDS011;44782;0.000;0.000;2023-05-24T08:23:49;2.47;;;1.67;;
58992;SDS011;44782;0.000;0.000;2023-05-24T08:26:05;2.60;;;1.90;;
58992;SDS011;44782;0.000;0.000;2023-05-24T08:28:21;2.77;;;1.70;;
58992;SDS011;44782;0.000;0.000;2023-05-24T08:30:36;2.87;;;1.63;;
58992;SDS011;44782;0.000;0.000;2023-05-24T08:32:52;2.63;;;1.67;;
58992;SDS011;44782;0.000;0.000;2023-05-24T08:35:08;2.43;;;1.63;;
58992;SDS011;44782;0.000;0.000;2023-05-24T08:37:23;2.73;;;1.80;;
58992;SDS011;44782;0.000;0.000;2023-05-24T08:39:39;2.23;;;1.70;;
58992;SDS011;44782;0.000;0.000;2023-05-24T08:41:56;2.83;;;1.60;;
58992;SDS011;44782;0.000;0.000;2023-05-24T08:44:12;2.37;;;1.70;;
58992;SDS011;44782;0.000;0.000;2023-05-24T08:46:28;2.60;;;1.70;;
58992;SDS011;44782;0.000;0.000;2023-05-24T08:48:45;2.77;;;1.70;;
58992;SDS011;44782;0.000;0.000;2023-05-24T08:51:02;1.97;;;1.60;;
58992;SDS011;44782;0.000;0.000;2023-05-24T08:53:18;2.97;;;1.70;;
58992;SDS011;44782;0.000;0.000;2023-05-24T08:55:36;2.13;;;1.70;;
58992;SDS011;44782;0.000;0.000;2023-05-24T08:57:52;2.50;;;1.67;;
58992;SDS011;44782;0.000;0.000;2023-05-24T09:00:10;3.60;;;1.80;;
58992;SDS011;44782;0.000;0.000;2023-05-24T09:02:26;3.07;;;1.80;;
58992;SDS011;44782;0.000;0.000;2023-05-24T09:04:42;2.13;;;1.60;;
58992;SDS011;44782;0.000;0.000;2023-05-24T09:07:02;2.90;;;1.70;;
58992;SDS011;44782;0.000;0.000;2023-05-24T09:09:19;2.73;;;1.80;;
58992;SDS011;44782;0.000;0.000;2023-05-24T09:11:36;3.73;;;1.70;;
58992;SDS011;44782;0.000;0.000;2023-05-24T09:13:54;2.37;;;1.70;;
58992;SDS011;44782;0.000;0.000;2023-05-24T09:16:11;3.23;;;1.63;;
58992;SDS011;44782;0.000;0.000;2023-05-24T09:18:27;2.33;;;1.53;;
58992;SDS011;44782;0.000;0.000;2023-05-24T09:20:43;2.47;;;1.60;;
58992;SDS011;44782;0.000;0.000;2023-05-24T09:22:58;1.60;;;1.50;;
58992;SDS011;44782;0.000;0.000;2023-05-24T09:25:17;2.67;;;1.40;;
58992;SDS011;44782;0.000;0.000;2023-05-24T09:27:34;2.40;;;1.70;;
58992;SDS011;44782;0.000;0.000;2023-05-24T09:29:51;1.73;;;1.40;;
58992;SDS011;44782;0.000;0.000;2023-05-24T09:32:10;2.60;;;1.80;;
58992;SDS011;44782;0.000;0.000;2023-05-24T09:34:27;2.33;;;1.70;;
58992;SDS011;44782;0.000;0.000;2023-05-24T09:36:44;2.10;;;1.70;;
58992;SDS011;44782;0.000;0.000;2023-05-24T09:39:07;2.33;;;1.50;;
58992;SDS011;44782;0.000;0.000;2023-05-24T09:41:23;2.10;;;1.50;;
58992;SDS011;44782;0.000;0.000;2023-05-24T09:43:46;1.80;;;1.53;;
58992;SDS011;44782;0.000;0.000;2023-05-24T09:46:03;2.63;;;1.60;;
58992;SDS011;44782;0.000;0.000;2023-05-24T09:48:19;1.63;;;1.50;;
58992;SDS011;44782;0.000;0.000;2023-05-24T09:50:35;2.03;;;1.60;;
58992;SDS011;44782;0.000;0.000;2023-05-24T09:52:51;2.10;;;1.73;;
58992;SDS011;44782;0.000;0.000;2023-05-24T09:55:15;2.13;;;1.70;;
58992;SDS011;44782;0.000;0.000;2023-05-24T09:57:34;1.50;;;1.40;;
58992;SDS011;44782;0.000;0.000;2023-05-24T09:59:50;1.87;;;1.50;;
58992;SDS011;44782;0.000;0.000;2023-05-24T10:02:06;2.27;;;1.50;;
58992;SDS011;44782;0.000;0.000;2023-05-24T10:04:32;2.33;;;1.80;;
58992;SDS011;44782;0.000;0.000;2023-05-24T10:06:48;2.17;;;1.70;;
58992;SDS011;44782;0.000;0.000;2023-05-24T10:09:03;2.97;;;1.90;;
58992;SDS011;44782;0.000;0.000;2023-05-24T10:11:20;4.27;;;2.20;;
58992;SDS011;44782;0.000;0.000;2023-05-24T10:13:36;3.83;;;1.97;;
58992;SDS011;44782;0.000;0.000;2023-05-24T10:15:53;3.73;;;2.23;;
58992;SDS011;44782;0.000;0.000;2023-05-24T10:18:09;3.47;;;2.03;;
58992;SDS011;44782;0.000;0.000;2023-05-24T10:20:25;3.43;;;2.30;;
58992;SDS011;44782;0.000;0.000;2023-05-24T10:22:42;3.20;;;2.03;;
58992;SDS011;44782;0.000;0.000;2023-05-24T10:25:01;5.50;;;2.50;;
58992;SDS011;44782;0.000;0.000;2023-05-24T10:27:22;3.80;;;2.40;;
58992;SDS011;44782;0.000;0.000;2023-05-24T10:32:32;3.80;;;2.30;;
58992;SDS011;44782;0.000;0.000;2023-05-24T10:34:51;5.13;;;2.50;;
58992;SDS011;44782;0.000;0.000;2023-05-24T10:37:08;4.93;;;2.73;;
58992;SDS011;44782;0.000;0.000;2023-05-24T10:39:24;3.40;;;2.40;;
58992;SDS011;44782;0.000;0.000;2023-05-24T10:41:40;4.67;;;3.00;;
58992;SDS011;44782;0.000;0.000;2023-05-24T10:43:56;3.60;;;2.47;;
58992;SDS011;44782;0.000;0.000;2023-05-24T10:46:15;4.80;;;2.57;;
58992;SDS011;44782;0.000;0.000;2023-05-24T10:48:32;5.03;;;2.60;;
58992;SDS011;44782;0.000;0.000;2023-05-24T10:50:51;4.13;;;2.50;;
58992;SDS011;44782;0.000;0.000;2023-05-24T10:53:13;3.83;;;2.37;;
58992;SDS011;44782;0.000;0.000;2023-05-24T10:55:30;3.67;;;2.27;;
58992;SDS011;44782;0.000;0.000;2023-05-24T10:57:48;3.80;;;2.40;;
58992;SDS011;44782;0.000;0.000;2023-05-24T11:04:58;3.77;;;2.30;;
58992;SDS011;44782;0.000;0.000;2023-05-24T11:07:19;3.87;;;2.40;;
58992;SDS011;44782;0.000;0.000;2023-05-24T11:09:36;4.00;;;2.43;;
58992;SDS011;44782;0.000;0.000;2023-05-24T11:12:00;3.63;;;2.40;;
58992;SDS011;44782;0.000;0.000;2023-05-24T11:14:24;3.67;;;2.10;;
58992;SDS011;44782;0.000;0.000;2023-05-24T11:16:43;5.10;;;2.50;;
58992;SDS011;44782;0.000;0.000;2023-05-24T11:19:09;3.17;;;2.40;;
58992;SDS011;44782;0.000;0.000;2023-05-24T11:21:49;4.23;;;2.60;;
58992;SDS011;44782;0.000;0.000;2023-05-24T11:24:07;3.07;;;2.30;;
58992;SDS011;44782;0.000;0.000;2023-05-24T11:26:23;2.70;;;2.20;;
58992;SDS011;44782;0.000;0.000;2023-05-24T11:28:39;3.90;;;2.40;;
58992;SDS011;44782;0.000;0.000;2023-05-24T11:30:56;2.90;;;2.30;;
58992;SDS011;44782;0.000;0.000;2023-05-24T11:33:18;4.33;;;2.20;;
58992;SDS011;44782;0.000;0.000;2023-05-24T11:35:37;3.00;;;2.03;;
58992;SDS011;44782;0.000;0.000;2023-05-24T11:37:53;3.80;;;2.37;;
58992;SDS011;44782;0.000;0.000;2023-05-24T11:40:10;3.47;;;2.30;;
58992;SDS011;44782;0.000;0.000;2023-05-24T11:42:27;3.30;;;2.10;;
58992;SDS011;44782;0.000;0.000;2023-05-24T11:44:43;2.70;;;2.03;;
58992;SDS011;44782;0.000;0.000;2023-05-24T11:47:04;3.20;;;1.90;;
58992;SDS011;44782;0.000;0.000;2023-05-24T11:49:22;2.97;;;2.10;;
58992;SDS011;44782;0.000;0.000;2023-05-24T11:51:37;2.87;;;2.00;;
58992;SDS011;44782;0.000;0.000;2023-05-24T11:53:54;2.00;;;1.77;;
58992;SDS011;44782;0.000;0.000;2023-05-24T11:56:11;2.50;;;2.00;;
58992;SDS011;44782;0.000;0.000;2023-05-24T11:59:27;2.37;;;2.00;;
58992;SDS011;44782;0.000;0.000;2023-05-24T12:01:27;2.20;;;1.83;;
58992;SDS011;44782;0.000;0.000;2023-05-24T12:03:45;2.63;;;1.87;;
58992;SDS011;44782;0.000;0.000;2023-05-24T12:06:01;2.00;;;1.90;;
58992;SDS011;44782;0.000;0.000;2023-05-24T12:08:17;2.60;;;2.00;;
58992;SDS011;44782;0.000;0.000;2023-05-24T12:10:34;2.13;;;1.90;;
58992;SDS011;44782;0.000;0.000;2023-05-24T12:12:51;3.17;;;2.00;;
58992;SDS011;44782;0.000;0.000;2023-05-24T12:15:09;2.30;;;1.90;;
58992;SDS011;44782;0.000;0.000;2023-05-24T12:17:26;2.60;;;1.87;;
58992;SDS011;44782;0.000;0.000;2023-05-24T12:19:42;3.00;;;2.10;;
58992;SDS011;44782;0.000;0.000;2023-05-24T12:21:58;2.40;;;1.83;;
58992;SDS011;44782;0.000;0.000;2023-05-24T12:24:16;3.23;;;2.10;;
58992;SDS011;44782;0.000;0.000;2023-05-24T12:26:35;2.03;;;1.83;;
58992;SDS011;44782;0.000;0.000;2023-05-24T12:28:52;1.90;;;1.70;;
58992;SDS011;44782;0.000;0.000;2023-05-24T12:31:09;2.43;;;1.80;;
58992;SDS011;44782;0.000;0.000;2023-05-24T12:33:24;2.53;;;2.07;;
58992;SDS011;44782;0.000;0.000;2023-05-24T12:35:41;2.27;;;1.80;;
58992;SDS011;44782;0.000;0.000;2023-05-24T12:37:57;2.03;;;1.83;;
58992;SDS011;44782;0.000;0.000;2023-05-24T12:40:19;2.70;;;1.80;;
58992;SDS011;44782;0.000;0.000;2023-05-24T12:42:37;2.77;;;1.90;;
58992;SDS011;44782;0.000;0.000;2023-05-24T12:44:53;2.13;;;1.80;;
58992;SDS011;44782;0.000;0.000;2023-05-24T12:47:08;2.60;;;1.80;;
58992;SDS011;44782;0.000;0.000;2023-05-24T12:49:24;2.50;;;1.90;;
58992;SDS011;44782;0.000;0.000;2023-05-24T12:51:40;2.10;;;1.70;;
58992;SDS011;44782;0.000;0.000;2023-05-24T12:53:56;1.87;;;1.73;;
58992;SDS011;44782;0.000;0.000;2023-05-24T12:56:12;1.90;;;1.70;;
58992;SDS011;44782;0.000;0.000;2023-05-24T12:58:28;1.67;;;1.57;;
58992;SDS011;44782;0.000;0.000;2023-05-24T13:00:46;1.93;;;1.70;;
58992;SDS011;44782;0.000;0.000;2023-05-24T13:03:04;1.80;;;1.70;;
58992;SDS011;44782;0.000;0.000;2023-05-24T13:05:20;2.17;;;1.80;;
58992;SDS011;44782;0.000;0.000;2023-05-24T13:07:41;1.73;;;1.63;;
58992;SDS011;44782;0.000;0.000;2023-05-24T13:09:58;1.80;;;1.70;;
58992;SDS011;44782;0.000;0.000;2023-05-24T13:12:17;2.10;;;1.90;;
58992;SDS011;44782;0.000;0.000;2023-05-24T13:14:33;2.30;;;1.73;;
58992;SDS011;44782;0.000;0.000;2023-05-24T13:16:50;2.53;;;1.90;;
58992;SDS011;44782;0.000;0.000;2023-05-24T13:19:06;2.10;;;1.83;;
58992;SDS011;44782;0.000;0.000;2023-05-24T13:21:25;1.87;;;1.77;;
58992;SDS011;44782;0.000;0.000;2023-05-24T13:23:42;2.00;;;1.80;;
58992;SDS011;44782;0.000;0.000;2023-05-24T13:26:03;1.90;;;1.63;;
58992;SDS011;44782;0.000;0.000;2023-05-24T13:28:23;2.10;;;1.87;;
58992;SDS011;44782;0.000;0.000;2023-05-24T13:30:39;1.77;;;1.67;;
58992;SDS011;44782;0.000;0.000;2023-05-24T13:32:54;2.20;;;2.00;;
58992;SDS011;44782;0.000;0.000;2023-05-24T13:35:10;2.93;;;1.90;;
58992;SDS011;44782;0.000;0.000;2023-05-24T13:37:26;3.60;;;2.00;;
58992;SDS011;44782;0.000;0.000;2023-05-24T13:39:41;3.07;;;2.13;;
58992;SDS011;44782;0.000;0.000;2023-05-24T13:41:57;2.87;;;1.97;;
58992;SDS011;44782;0.000;0.000;2023-05-24T13:44:16;3.10;;;2.10;;
58992;SDS011;44782;0.000;0.000;2023-05-24T13:46:32;2.20;;;2.00;;
58992;SDS011;44782;0.000;0.000;2023-05-24T13:48:50;2.30;;;2.10;;
58992;SDS011;44782;0.000;0.000;2023-05-24T13:51:06;3.50;;;2.20;;
58992;SDS011;44782;0.000;0.000;2023-05-24T13:53:22;2.80;;;2.30;;
58992;SDS011;44782;0.000;0.000;2023-05-24T13:55:38;2.57;;;2.10;;
58992;SDS011;44782;0.000;0.000;2023-05-24T13:57:54;2.83;;;2.10;;
58992;SDS011;44782;0.000;0.000;2023-05-24T14:00:11;2.13;;;1.90;;
58992;SDS011;44782;0.000;0.000;2023-05-24T14:02:27;2.37;;;2.17;;
58992;SDS011;44782;0.000;0.000;2023-05-24T14:04:42;2.10;;;1.90;;
58992;SDS011;44782;0.000;0.000;2023-05-24T14:06:58;2.87;;;2.13;;
58992;SDS011;44782;0.000;0.000;2023-05-24T14:09:17;2.07;;;1.87;;
58992;SDS011;44782;0.000;0.000;2023-05-24T14:11:35;2.40;;;2.13;;
58992;SDS011;44782;0.000;0.000;2023-05-24T14:13:51;2.13;;;1.93;;
58992;SDS011;44782;0.000;0.000;2023-05-24T14:16:07;2.47;;;2.13;;
58992;SDS011;44782;0.000;0.000;2023-05-24T14:18:23;3.17;;;1.90;;
58992;SDS011;44782;0.000;0.000;2023-05-24T14:20:39;2.40;;;2.00;;
58992;SDS011;44782;0.000;0.000;2023-05-24T14:22:58;2.30;;;2.10;;
58992;SDS011;44782;0.000;0.000;2023-05-24T14:25:14;2.77;;;2.10;;
58992;SDS011;44782;0.000;0.000;2023-05-24T14:27:30;2.33;;;2.03;;
58992;SDS011;44782;0.000;0.000;2023-05-24T14:29:45;2.33;;;1.97;;